sensor_id;sensor_type;location;lat;lon;timestamp;pressure;altitude;pressure_sealevel;temperature;humidity
9325;BME280;4701;51.566;6.776;2023-04-01T07:03:47;99072.69;;;8.80;100.00
9325;BME280;4701;51.566;6.776;2023-04-01T07:06:54;99080.47;;;8.86;100.00
9325;BME280;4701;51.566;6.776;2023-04-01T07:09:58;99078.50;;;8.92;100.00
9325;BME280;4701;51.566;6.776;2023-04-01T07:13:06;99090.59;;;8.99;100.00
9325;BME280;4701;51.566;6.776;2023-04-01T07:16:29;99079.63;;;9.04;100.00
9325;BME280;4701;51.566;6.776;2023-04-01T07:19:36;99089.63;;;9.09;100.00
9325;BME280;4701;51.566;6.776;2023-04-01T07:22:44;99093.06;;;9.15;100.00
9325;BME280;4701;51.566;6.776;2023-04-01T07:26:07;99096.78;;;9.19;100.00
9325;BME280;4701;51.566;6.776;2023-04-01T07:29:18;99104.66;;;9.20;100.00
9325;BME280;4701;51.566;6.776;2023-04-01T07:32:32;99104.88;;;9.24;100.00
9325;BME280;4701;51.566;6.776;2023-04-01T07:35:48;99099.94;;;9.26;100.00
9325;BME280;4701;51.566;6.776;2023-04-01T07:39:00;99096.63;;;9.29;100.00
9325;BME280;4701;51.566;6.776;2023-04-01T07:42:38;99113.44;;;9.31;100.00
9325;BME280;4701;51.566;6.776;2023-04-01T07:45:46;99113.16;;;9.32;100.00
9325;BME280;4701;51.566;6.776;2023-04-01T07:48:57;99119.09;;;9.34;100.00
9325;BME280;4701;51.566;6.776;2023-04-01T07:52:06;99118.78;;;9.36;100.00
9325;BME280;4701;51.566;6.776;2023-04-01T07:55:20;99126.66;;;9.37;100.00
9325;BME280;4701;51.566;6.776;2023-04-01T07:58:31;99123.63;;;9.39;100.00
9325;BME280;4701;51.566;6.776;2023-04-01T08:01:42;99140.47;;;9.41;100.00
9325;BME280;4701;51.566;6.776;2023-04-01T08:04:54;99144.81;;;9.42;100.00
9325;BME280;4701;51.566;6.776;2023-04-01T08:08:06;99145.63;;;9.42;100.00
9325;BME280;4701;51.566;6.776;2023-04-01T08:11:45;99155.41;;;9.43;100.00
9325;BME280;4701;51.566;6.776;2023-04-01T08:15:15;99156.97;;;9.44;100.00
9325;BME280;4701;51.566;6.776;2023-04-01T08:18:31;99158.59;;;9.45;100.00
9325;BME280;4701;51.566;6.776;2023-04-01T08:21:42;99173.81;;;9.46;100.00
9325;BME280;4701;51.566;6.776;2023-04-01T08:24:48;99165.38;;;9.48;100.00
9325;BME280;4701;51.566;6.776;2023-04-01T08:28:00;99169.72;;;9.49;100.00
9325;BME280;4701;51.566;6.776;2023-04-01T08:31:10;99180.00;;;9.52;100.00
9325;BME280;4701;51.566;6.776;2023-04-01T08:34:20;99179.69;;;9.54;100.00
9325;BME280;4701;51.566;6.776;2023-04-01T08:37:28;99183.22;;;9.54;100.00
9325;BME280;4701;51.566;6.776;2023-04-01T08:40:57;99181.00;;;9.56;100.00
9325;BME280;4701;51.566;6.776;2023-04-01T08:44:41;99197.03;;;9.58;100.00
9325;BME280;4701;51.566;6.776;2023-04-01T08:48:02;99199.47;;;9.59;100.00
9325;BME280;4701;51.566;6.776;2023-04-01T08:54:57;99204.28;;;9.62;100.00
9325;BME280;4701;51.566;6.776;2023-04-01T08:58:37;99212.16;;;9.64;100.00
9325;BME280;4701;51.566;6.776;2023-04-01T09:02:24;99218.13;;;9.66;100.00
9325;BME280;4701;51.566;6.776;2023-04-01T09:09:37;99217.22;;;9.70;100.00
9325;BME280;4701;51.566;6.776;2023-04-01T09:12:55;99212.28;;;9.72;100.00
9325;BME280;4701;51.566;6.776;2023-04-01T09:16:18;99217.44;;;9.74;100.00
9325;BME280;4701;51.566;6.776;2023-04-01T09:19:31;99224.50;;;9.75;100.00
9325;BME280;4701;51.566;6.776;2023-04-01T09:22:47;99227.13;;;9.80;100.00
9325;BME280;4701;51.566;6.776;2023-04-01T09:26:00;99234.19;;;9.81;100.00
9325;BME280;4701;51.566;6.776;2023-04-01T09:29:17;99235.81;;;9.82;100.00
9325;BME280;4701;51.566;6.776;2023-04-01T09:32:42;99231.69;;;9.84;100.00
9325;BME280;4701;51.566;6.776;2023-04-01T09:36:03;99238.75;;;9.85;100.00
9325;BME280;4701;51.566;6.776;2023-04-01T09:39:19;99252.03;;;9.87;100.00
9325;BME280;4701;51.566;6.776;2023-04-01T09:42:42;99263.94;;;9.91;100.00
9325;BME280;4701;51.566;6.776;2023-04-01T09:46:02;99251.97;;;9.92;100.00
9325;BME280;4701;51.566;6.776;2023-04-01T09:49:26;99253.59;;;9.93;100.00
9325;BME280;4701;51.566;6.776;2023-04-01T09:52:38;99261.44;;;9.95;100.00
9325;BME280;4701;51.566;6.776;2023-04-01T10:07:33;99288.28;;;10.01;100.00
9325;BME280;4701;51.566;6.776;2023-04-01T10:11:01;99278.19;;;10.02;100.00
9325;BME280;4701;51.566;6.776;2023-04-01T10:14:37;99284.47;;;10.02;100.00
9325;BME280;4701;51.566;6.776;2023-04-01T10:18:02;99288.81;;;10.03;100.00
9325;BME280;4701;51.566;6.776;2023-04-01T10:21:29;99286.84;;;10.04;100.00
9325;BME280;4701;51.566;6.776;2023-04-01T10:25:00;99293.91;;;10.05;100.00
9325;BME280;4701;51.566;6.776;2023-04-01T10:28:33;99300.97;;;10.06;100.00
9325;BME280;4701;51.566;6.776;2023-04-01T10:32:30;99295.53;;;10.06;100.00
9325;BME280;4701;51.566;6.776;2023-04-01T10:36:24;99303.41;;;10.07;100.00
9325;BME280;4701;51.566;6.776;2023-04-01T10:40:16;99308.84;;;10.07;100.00
9325;BME280;4701;51.566;6.776;2023-04-01T10:47:44;99306.66;;;10.09;100.00
9325;BME280;4701;51.566;6.776;2023-04-01T10:51:04;99317.53;;;10.09;100.00
9325;BME280;4701;51.566;6.776;2023-04-01T10:54:21;99344.47;;;10.11;100.00
9325;BME280;4701;51.566;6.776;2023-04-01T10:58:13;99320.78;;;10.11;100.00
9325;BME280;4701;51.566;6.776;2023-04-01T11:06:54;99329.16;;;10.15;100.00
9325;BME280;4701;51.566;6.776;2023-04-01T11:10:47;99329.16;;;10.15;100.00
9325;BME280;4701;51.566;6.776;2023-04-01T11:14:22;99339.75;;;10.16;100.00
9325;BME280;4701;51.566;6.776;2023-04-01T11:22:08;99347.38;;;10.19;100.00
9325;BME280;4701;51.566;6.776;2023-04-01T11:25:33;99334.56;;;10.20;100.00
9325;BME280;4701;51.566;6.776;2023-04-01T11:29:30;99339.69;;;10.21;100.00
9325;BME280;4701;51.566;6.776;2023-04-01T11:32:54;99353.00;;;10.23;100.00
9325;BME280;4701;51.566;6.776;2023-04-01T11:36:15;99360.34;;;10.22;100.00
9325;BME280;4701;51.566;6.776;2023-04-01T11:39:26;99363.09;;;10.22;100.00
9325;BME280;4701;51.566;6.776;2023-04-01T11:42:41;99372.06;;;10.23;100.00
9325;BME280;4701;51.566;6.776;2023-04-01T11:46:27;99381.03;;;10.23;100.00
9325;BME280;4701;51.566;6.776;2023-04-01T11:49:49;99383.75;;;10.23;100.00
9325;BME280;4701;51.566;6.776;2023-04-01T11:53:30;99388.09;;;10.24;100.00
9325;BME280;4701;51.566;6.776;2023-04-01T11:56:53;99391.94;;;10.23;100.00
9325;BME280;4701;51.566;6.776;2023-04-01T12:00:18;99395.19;;;10.26;100.00
9325;BME280;4701;51.566;6.776;2023-04-01T12:03:41;99422.13;;;10.27;100.00
9325;BME280;4701;51.566;6.776;2023-04-01T12:06:50;99410.13;;;10.28;100.00
9325;BME280;4701;51.566;6.776;2023-04-01T12:10:01;99413.34;;;10.30;100.00
9325;BME280;4701;51.566;6.776;2023-04-01T12:13:14;99416.88;;;10.31;100.00
9325;BME280;4701;51.566;6.776;2023-04-01T12:16:38;99414.66;;;10.33;100.00
9325;BME280;4701;51.566;6.776;2023-04-01T12:19:50;99423.34;;;10.35;100.00
9325;BME280;4701;51.566;6.776;2023-04-01T12:22:59;99432.03;;;10.37;100.00
9325;BME280;4701;51.566;6.776;2023-04-01T12:26:22;99441.84;;;10.38;100.00
9325;BME280;4701;51.566;6.776;2023-04-01T12:29:53;99434.16;;;10.40;100.00
9325;BME280;4701;51.566;6.776;2023-04-01T12:33:16;99432.53;;;10.39;100.00
9325;BME280;4701;51.566;6.776;2023-04-01T12:36:30;99445.06;;;10.40;100.00
9325;BME280;4701;51.566;6.776;2023-04-01T12:43:33;99448.88;;;10.39;100.00
9325;BME280;4701;51.566;6.776;2023-04-01T12:46:51;99457.06;;;10.39;100.00
9325;BME280;4701;51.566;6.776;2023-04-01T12:50:26;99460.91;;;10.38;100.00
9325;BME280;4701;51.566;6.776;2023-04-01T12:53:45;99472.09;;;10.36;100.00
9325;BME280;4701;51.566;6.776;2023-04-01T12:57:02;99469.66;;;10.35;100.00
9325;BME280;4701;51.566;6.776;2023-04-01T13:00:18;99477.81;;;10.35;100.00
9325;BME280;4701;51.566;6.776;2023-04-01T13:03:46;99473.19;;;10.35;100.00
9325;BME280;4701;51.566;6.776;2023-04-01T13:07:05;99477.00;;;10.34;100.00
9325;BME280;4701;51.566;6.776;2023-04-01T13:10:24;99487.91;;;10.34;100.00
9325;BME280;4701;51.566;6.776;2023-04-01T13:14:11;99489.53;;;10.35;100.00
9325;BME280;4701;51.566;6.776;2023-04-01T13:17:20;99502.34;;;10.35;100.00
9325;BME280;4701;51.566;6.776;2023-04-01T13:20:35;99502.34;;;10.35;100.00
9325;BME280;4701;51.566;6.776;2023-04-01T13:23:52;99502.34;;;10.35;100.00
9325;BME280;4701;51.566;6.776;2023-04-01T13:27:02;99505.06;;;10.35;100.00
9325;BME280;4701;51.566;6.776;2023-04-01T13:30:23;99501.53;;;10.34;100.00
9325;BME280;4701;51.566;6.776;2023-04-01T13:33:33;99515.97;;;10.35;100.00
9325;BME280;4701;51.566;6.776;2023-04-01T13:36:49;99508.88;;;10.34;100.00
9325;BME280;4701;51.566;6.776;2023-04-01T13:40:03;99508.88;;;10.34;100.00
9325;BME280;4701;51.566;6.776;2023-04-01T13:43:20;99515.16;;;10.34;100.00
9325;BME280;4701;51.566;6.776;2023-04-01T13:46:45;99516.25;;;10.33;100.00
9325;BME280;4701;51.566;6.776;2023-04-01T13:50:26;99527.44;;;10.32;100.00
9325;BME280;4701;51.566;6.776;2023-04-01T13:53:51;99521.97;;;10.32;100.00
9325;BME280;4701;51.566;6.776;2023-04-01T13:57:09;99534.50;;;10.33;100.00
9325;BME280;4701;51.566;6.776;2023-04-01T14:00:25;99540.75;;;10.33;100.00
9325;BME280;4701;51.566;6.776;2023-04-01T14:03:43;99547.00;;;10.34;100.00
9325;BME280;4701;51.566;6.776;2023-04-01T14:06:58;99543.19;;;10.35;100.00
9325;BME280;4701;51.566;6.776;2023-04-01T14:10:07;99549.44;;;10.35;100.00
9325;BME280;4701;51.566;6.776;2023-04-01T14:13:18;99546.44;;;10.37;100.00
9325;BME280;4701;51.566;6.776;2023-04-01T14:20:22;99546.44;;;10.37;100.00
9325;BME280;4701;51.566;6.776;2023-04-01T14:23:37;99555.41;;;10.37;100.00
9325;BME280;4701;51.566;6.776;2023-04-01T14:26:55;99559.75;;;10.38;100.00
9325;BME280;4701;51.566;6.776;2023-04-01T14:30:10;99558.63;;;10.39;100.00
9325;BME280;4701;51.566;6.776;2023-04-01T14:33:28;99566.00;;;10.39;100.00
9325;BME280;4701;51.566;6.776;2023-04-01T14:36:46;99567.34;;;10.41;100.00
9325;BME280;4701;51.566;6.776;2023-04-01T14:40:05;99566.75;;;10.44;100.00
9325;BME280;4701;51.566;6.776;2023-04-01T14:43:22;99573.84;;;10.45;100.00
9325;BME280;4701;51.566;6.776;2023-04-01T14:46:38;99577.03;;;10.47;100.00
9325;BME280;4701;51.566;6.776;2023-04-01T14:49:52;99571.59;;;10.47;100.00
9325;BME280;4701;51.566;6.776;2023-04-01T14:53:11;99572.94;;;10.50;100.00
9325;BME280;4701;51.566;6.776;2023-04-01T14:56:35;99582.72;;;10.51;100.00
9325;BME280;4701;51.566;6.776;2023-04-01T14:59:39;99589.00;;;10.51;100.00
9325;BME280;4701;51.566;6.776;2023-04-01T15:02:56;99590.63;;;10.52;100.00
9325;BME280;4701;51.566;6.776;2023-04-01T15:06:25;99594.16;;;10.53;100.00
9325;BME280;4701;51.566;6.776;2023-04-01T15:09:37;99601.50;;;10.52;100.00
9325;BME280;4701;51.566;6.776;2023-04-01T15:12:50;99603.94;;;10.54;100.00
9325;BME280;4701;51.566;6.776;2023-04-01T15:16:06;99602.81;;;10.55;100.00
9325;BME280;4701;51.566;6.776;2023-04-01T15:19:18;99611.53;;;10.57;100.00
9325;BME280;4701;51.566;6.776;2023-04-01T15:22:39;99611.53;;;10.57;100.00
9325;BME280;4701;51.566;6.776;2023-04-01T15:25:56;99616.38;;;10.60;100.00
9325;BME280;4701;51.566;6.776;2023-04-01T15:29:28;99623.47;;;10.61;100.00
9325;BME280;4701;51.566;6.776;2023-04-01T15:32:45;99632.44;;;10.61;100.00
9325;BME280;4701;51.566;6.776;2023-04-01T15:35:58;99636.00;;;10.62;100.00
9325;BME280;4701;51.566;6.776;2023-04-01T15:39:10;99631.63;;;10.61;100.00
9325;BME280;4701;51.566;6.776;2023-04-01T15:42:28;99633.56;;;10.60;100.00
9325;BME280;4701;51.566;6.776;2023-04-01T15:45:43;99648.00;;;10.61;100.00
9325;BME280;4701;51.566;6.776;2023-04-01T15:48:57;99646.38;;;10.60;100.00
9325;BME280;4701;51.566;6.776;2023-04-01T15:52:06;99654.81;;;10.58;100.00
9325;BME280;4701;51.566;6.776;2023-04-01T15:55:18;99658.38;;;10.59;100.00
9325;BME280;4701;51.566;6.776;2023-04-01T15:58:37;99660.56;;;10.57;100.00
9325;BME280;4701;51.566;6.776;2023-04-01T16:01:47;99662.75;;;10.55;100.00
9325;BME280;4701;51.566;6.776;2023-04-01T16:04:57;99666.63;;;10.54;100.00
9325;BME280;4701;51.566;6.776;2023-04-01T16:08:12;99670.72;;;10.51;100.00
9325;BME280;4701;51.566;6.776;2023-04-01T16:11:25;99686.53;;;10.49;100.00
9325;BME280;4701;51.566;6.776;2023-04-01T16:14:39;99671.28;;;10.48;100.00
9325;BME280;4701;51.566;6.776;2023-04-01T16:17:58;99685.22;;;10.47;100.00
9325;BME280;4701;51.566;6.776;2023-04-01T16:21:11;99692.06;;;10.44;100.00
9325;BME280;4701;51.566;6.776;2023-04-01T16:24:17;99684.19;;;10.43;100.00
9325;BME280;4701;51.566;6.776;2023-04-01T16:27:27;99696.19;;;10.42;100.00
9325;BME280;4701;51.566;6.776;2023-04-01T16:30:37;99701.91;;;10.40;100.00
9325;BME280;4701;51.566;6.776;2023-04-01T16:33:45;99699.47;;;10.39;100.00
9325;BME280;4701;51.566;6.776;2023-04-01T16:36:52;99707.66;;;10.39;100.00
9325;BME280;4701;51.566;6.776;2023-04-01T16:40:09;99703.31;;;10.38;100.00
9325;BME280;4701;51.566;6.776;2023-04-01T16:43:20;99718.03;;;10.37;100.00
9325;BME280;4701;51.566;6.776;2023-04-01T16:46:33;99718.03;;;10.37;100.00
9325;BME280;4701;51.566;6.776;2023-04-01T16:49:37;99722.69;;;10.36;100.00
9325;BME280;4701;51.566;6.776;2023-04-01T16:53:00;99726.50;;;10.35;100.00
9325;BME280;4701;51.566;6.776;2023-04-01T16:56:09;99737.38;;;10.35;100.00
9325;BME280;4701;51.566;6.776;2023-04-01T16:59:17;99737.38;;;10.35;100.00
9325;BME280;4701;51.566;6.776;2023-04-01T17:02:26;99743.94;;;10.34;100.00
9325;BME280;4701;51.566;6.776;2023-04-01T17:05:43;99743.13;;;10.34;100.00
9325;BME280;4701;51.566;6.776;2023-04-01T17:09:01;99754.03;;;10.34;100.00
9325;BME280;4701;51.566;6.776;2023-04-01T17:12:09;99752.38;;;10.33;100.00
9325;BME280;4701;51.566;6.776;2023-04-01T17:15:20;99755.94;;;10.33;100.00
9325;BME280;4701;51.566;6.776;2023-04-01T17:18:33;99769.00;;;10.31;100.00
9325;BME280;4701;51.566;6.776;2023-04-01T17:21:48;99770.94;;;10.31;100.00
9325;BME280;4701;51.566;6.776;2023-04-01T17:25:01;99775.88;;;10.29;100.00
9325;BME280;4701;51.566;6.776;2023-04-01T17:28:14;99776.16;;;10.27;100.00
9325;BME280;4701;51.566;6.776;2023-04-01T17:31:30;99784.84;;;10.29;100.00
9325;BME280;4701;51.566;6.776;2023-04-01T17:34:46;99789.50;;;10.29;100.00
9325;BME280;4701;51.566;6.776;2023-04-01T17:37:59;99801.19;;;10.29;100.00
9325;BME280;4701;51.566;6.776;2023-04-01T17:41:09;99804.19;;;10.28;100.00
9325;BME280;4701;51.566;6.776;2023-04-01T17:44:21;99808.84;;;10.27;100.00
9325;BME280;4701;51.566;6.776;2023-04-01T17:47:44;99818.91;;;10.27;100.00
9325;BME280;4701;51.566;6.776;2023-04-01T17:51:15;99821.91;;;10.25;100.00
9325;BME280;4701;51.566;6.776;2023-04-01T17:54:24;99812.94;;;10.24;100.00
9325;BME280;4701;51.566;6.776;2023-04-01T17:57:37;99834.72;;;10.24;100.00
9325;BME280;4701;51.566;6.776;2023-04-01T18:00:51;99837.72;;;10.23;100.00
9325;BME280;4701;51.566;6.776;2023-04-01T18:04:14;99837.72;;;10.23;100.00
9325;BME280;4701;51.566;6.776;2023-04-01T18:07:33;99843.19;;;10.23;100.00
9325;BME280;4701;51.566;6.776;2023-04-01T18:10:52;99844.00;;;10.23;100.00
9325;BME280;4701;51.566;6.776;2023-04-01T18:14:21;99854.88;;;10.23;100.00
9325;BME280;4701;51.566;6.776;2023-04-01T18:17:37;99863.06;;;10.23;100.00
9325;BME280;4701;51.566;6.776;2023-04-01T18:20:50;99870.94;;;10.25;100.00
9325;BME280;4701;51.566;6.776;2023-04-01T18:23:56;99871.75;;;10.26;100.00
9325;BME280;4701;51.566;6.776;2023-04-01T18:27:02;99877.22;;;10.26;100.00
9325;BME280;4701;51.566;6.776;2023-04-01T18:30:13;99880.47;;;10.28;100.00
9325;BME280;4701;51.566;6.776;2023-04-01T18:33:19;99900.03;;;10.30;100.00
9325;BME280;4701;51.566;6.776;2023-04-01T18:36:26;99897.03;;;10.31;100.00
9325;BME280;4701;51.566;6.776;2023-04-01T18:39:39;99908.75;;;10.32;100.00
9325;BME280;4701;51.566;6.776;2023-04-01T18:42:50;99912.28;;;10.32;100.00
9325;BME280;4701;51.566;6.776;2023-04-01T18:45:58;99920.44;;;10.32;100.00
9325;BME280;4701;51.566;6.776;2023-04-01T18:49:06;99922.34;;;10.32;100.00
9325;BME280;4701;51.566;6.776;2023-04-01T18:52:16;99933.25;;;10.32;100.00
9325;BME280;4701;51.566;6.776;2023-04-01T18:55:29;99937.06;;;10.31;100.00
9325;BME280;4701;51.566;6.776;2023-04-01T18:58:34;99947.16;;;10.30;100.00
9325;BME280;4701;51.566;6.776;2023-04-01T19:01:40;99950.19;;;10.29;100.00
9325;BME280;4701;51.566;6.776;2023-04-01T19:04:49;99964.91;;;10.28;100.00
9325;BME280;4701;51.566;6.776;2023-04-01T19:07:54;99966.00;;;10.27;100.00
9325;BME280;4701;51.566;6.776;2023-04-01T19:11:04;99979.59;;;10.27;100.00
9325;BME280;4701;51.566;6.776;2023-04-01T19:14:13;99983.69;;;10.24;100.00
9325;BME280;4701;51.566;6.776;2023-04-01T19:17:27;99987.50;;;10.23;100.00
9325;BME280;4701;51.566;6.776;2023-04-01T19:20:38;99993.53;;;10.20;100.00
9325;BME280;4701;51.566;6.776;2023-04-01T19:24:04;100001.19;;;10.18;100.00
9325;BME280;4701;51.566;6.776;2023-04-01T19:27:14;100015.03;;;10.16;100.00
9325;BME280;4701;51.566;6.776;2023-04-01T19:30:36;100013.97;;;10.12;100.00
9325;BME280;4701;51.566;6.776;2023-04-01T19:33:52;100027.06;;;10.10;100.00
9325;BME280;4701;51.566;6.776;2023-04-01T19:37:02;100024.06;;;10.07;100.00
9325;BME280;4701;51.566;6.776;2023-04-01T19:40:20;100023.53;;;10.05;100.00
9325;BME280;4701;51.566;6.776;2023-04-01T19:43:42;100032.56;;;10.00;100.00
9325;BME280;4701;51.566;6.776;2023-04-01T19:46:49;100034.19;;;9.96;100.00
9325;BME280;4701;51.566;6.776;2023-04-01T19:49:59;100045.66;;;9.93;100.00
9325;BME280;4701;51.566;6.776;2023-04-01T19:53:14;100052.47;;;9.91;100.00
9325;BME280;4701;51.566;6.776;2023-04-01T19:56:21;100062.00;;;9.88;100.00
9325;BME280;4701;51.566;6.776;2023-04-01T19:59:30;100074.53;;;9.84;100.00
9325;BME280;4701;51.566;6.776;2023-04-01T20:02:42;100078.91;;;9.80;100.00
9325;BME280;4701;51.566;6.776;2023-04-01T20:06:02;100084.91;;;9.77;100.00
9325;BME280;4701;51.566;6.776;2023-04-01T20:09:26;100092.81;;;9.73;100.00
9325;BME280;4701;51.566;6.776;2023-04-01T20:12:43;100097.97;;;9.70;100.00
9325;BME280;4701;51.566;6.776;2023-04-01T20:16:00;100113.78;;;9.68;100.00
9325;BME280;4701;51.566;6.776;2023-04-01T20:19:03;100115.41;;;9.64;100.00
9325;BME280;4701;51.566;6.776;2023-04-01T20:22:15;100124.16;;;9.61;100.00
9325;BME280;4701;51.566;6.776;2023-04-01T20:25:23;100133.66;;;9.58;100.00
9325;BME280;4701;51.566;6.776;2023-04-01T20:28:32;100131.47;;;9.55;100.00
9325;BME280;4701;51.566;6.776;2023-04-01T20:31:42;100145.66;;;9.52;100.00
9325;BME280;4701;51.566;6.776;2023-04-01T20:34:58;100156.81;;;9.51;100.00
9325;BME280;4701;51.566;6.776;2023-04-01T20:38:26;100160.88;;;9.48;100.00
9325;BME280;4701;51.566;6.776;2023-04-01T20:41:40;100161.72;;;9.43;100.00
9325;BME280;4701;51.566;6.776;2023-04-01T20:44:50;100165.78;;;9.41;100.00
9325;BME280;4701;51.566;6.776;2023-04-01T20:48:10;100170.13;;;9.37;100.00
9325;BME280;4701;51.566;6.776;2023-04-01T20:51:18;100184.28;;;9.34;100.00
9325;BME280;4701;51.566;6.776;2023-04-01T20:54:40;100189.16;;;9.32;100.00
9325;BME280;4701;51.566;6.776;2023-04-01T20:57:54;100196.22;;;9.28;100.00
